首页
METAR-TAF:

METAR-TAF

机场 :

Duke Field, 佛罗里达州, 美国

纬度: 30-39N, 经度: 086-31W, 海拔: 59米

当前天气观测

该预报发布于21分钟前的22:56 UTC
风速14节,风向北转西北
温度 15°C
湿度 59%
气压 1020 hPa
能見度: 16.1公里
阴天层高于3300英尺

METAR: KEGI 262256Z AUTO 33014KT 10SM OVC033 15/07 A3011 RMK AO2 SLP197 T01450073 $

时间: 18:17 (23:17 UTC)

预报

该预报发布于6小时和17分钟前的17:00 UTC
预报有效从26日的 17点(UTC)到 27日的 23点(UTC)
风速10节,风向,有时为15节阵风
能见度10公里或以上
散云层高于2600英尺
短暂存在
从 26日的 17点(UTC)到 26日的 22点(UTC)
多云层高于3000英尺
成为
从 26日的 23点(UTC)到 26日的 24点(UTC)
风速10节,风向北转西北
能见度10公里或以上
少量云层高于2500英尺
成为
从 27日的 06点(UTC)到 27日的 07点(UTC)
风速9节,风向北转东北
能见度10公里或以上
少量云层高于2000英尺
多云层高于3500英尺
成为
从 27日的 10点(UTC)到 27日的 11点(UTC)
风速10节,风向东北,有时为15节阵风
能见度10公里或以上
多云层高于1800英尺
成为
从 27日的 13点(UTC)到 27日的 14点(UTC)
风速9节,风向东转东北,有时为18节阵风
能見度: 2721
少量云层高于2000英尺

TAF: KEGI 261700Z 2617/2723 36010G15KT 9999 SCT026 QNH3014INS TEMPO 2617/2622 BKN030 BECMG 2623/2624 34010KT 9999 FEW025 QNH3010INS BECMG 2706/2707 02009KT 9999 FEW020 BKN035 QNH3020INS BECMG 2710/2711 04010G15KT 9999 BKN018 QNH3016INS BECMG 2713/2714 04012G18KT 9999 FEW020 QNH3022INS WND 06009KT AFT 2721 TX21/2620Z TN09/2711Z

超过4000个机场的气象观测和天气预报(METAR&TAF报告)。

可查询的气象台以黄色和红色小点在地图上表示。

将鼠标移到小点上方,可查看气象台名称。

然后点击查看天气观测和预报。

如需切换地图:点击带黑十字的绿色按钮放大地图;点击带横线的绿色按钮缩小地图;或者点击绿色箭头查看邻近地区的地图。


METAR-TAF: